Latest Coastal Weather Observations for Dennes Point

IDT60701

Issued at 5:25 am EST Saturday 19 April 2014 (issued every 10 minutes, with the page automatically refreshed every 10 minutes)

About coastal observations | Map of coastal stations | Coastal observations for TAS | Marine services | Other Formats
Station Details ID: 094255 Name: DENNES POINT Lat: -43.06 Lon: 147.36 Height: 5.67 m
Data from the previous 72 hours. | See also: Recent months at Dennes Point
Date/Time
EST
Temp

°C
Wind Pressure Rain
since 9am
mm
Weather Cloud Vis
km
Sea
Height
m
Swell
Dir
 
Speed
knots
Gust
knots
hPa Trend Height
m
Period
s
Dir
19/05:00am 10.4 WSW 14 18 1013.8 - 0.6 - - - - - - -
19/04:30am 10.1 WSW 12 17 1013.8 - 0.6 - - - - - - -
19/04:00am 10.1 WSW 14 17 1013.6 - 0.6 - - - - - - -
19/03:30am 10.3 WSW 15 19 1013.5 - 0.6 - - - - - - -
19/03:00am 10.3 WSW 14 17 1013.3 - 0.6 - - - - - - -
19/02:30am 10.5 WSW 15 21 1013.4 - 0.6 - - - - - - -
19/02:00am 10.3 WSW 14 21 1013.5 - 0.6 - - - - - - -
19/01:30am 10.9 WSW 16 23 1013.3 - 0.6 - - - - - - -
19/01:00am 10.7 WSW 13 17 1013.2 - 0.6 - - - - - - -
19/12:30am 10.5 WSW 12 16 1013.3 - 0.6 - - - - - - -
19/12:00am 10.8 WSW 12 16 1013.4 - 0.6 - - - - - - -
 
Date/Time
EST
Temp

°C
Wind Pressure Rain
since 9am
mm
Weather Cloud Vis
km
Sea
Height
m
Swell
Dir
 
Speed
knots
Gust
knots
hPa Trend Height
m
Period
s
Dir
18/11:30pm 10.8 WSW 13 18 1013.3 - 0.6 - - - - - - -
18/11:00pm 10.8 WSW 14 19 1013.1 - 0.6 - - - - - - -
18/10:30pm 11.4 WSW 14 20 1013.1 - 0.6 - - - - - - -
18/10:00pm 11.1 WSW 14 19 1013.0 - 0.6 - - - - - - -
18/09:30pm 11.1 WSW 13 16 1012.8 - 0.6 - - - - - - -
18/09:00pm 11.3 WSW 15 21 1012.5 - 0.6 - - - - - - -
18/08:30pm 11.4 WSW 16 20 1012.1 - 0.6 - - - - - - -
18/08:00pm 11.4 WSW 16 21 1011.8 - 0.6 - - - - - - -
18/07:30pm 11.6 WSW 16 20 1011.6 - 0.6 - - - - - - -
18/07:00pm 11.8 WSW 12 15 1011.5 - 0.6 - - - - - - -
18/06:30pm 11.6 WSW 13 15 1011.1 - 0.6 - - - - - - -
18/06:00pm 11.7 SW 10 15 1010.7 - 0.6 - - - - - - -
18/05:30pm 11.4 WSW 16 23 1010.4 - 0.6 - - - - - - -
18/05:00pm 12.6 WSW 17 22 1009.7 - 0.6 - - - - - - -
18/04:30pm 13.6 WSW 14 20 1009.3 - 0.6 - - - - - - -
18/04:08pm 14.3 WSW 15 26 1009.1 - 0.6 - - - - - - -
18/04:00pm 14.1 WSW 15 22 1009.1 - 0.6 - - - - - - -
18/03:30pm 13.1 WSW 17 29 1008.4 - 0.4 - - - - - - -
18/03:20pm 14.3 WSW 15 29 1008.0 - 0.4 - - - - - - -
18/03:00pm 14.3 WSW 13 22 1008.0 - 0.4 - - - - - - -
18/02:30pm 14.1 WSW 11 19 1007.9 - 0.4 - - - - - - -
18/02:00pm 13.8 WSW 12 16 1007.7 - 0.4 - - - - - - -
18/01:30pm 13.4 W 18 27 1007.7 - 0.4 - - - - - - -
18/01:00pm 13.1 WSW 13 17 1007.9 - 0.4 - - - - - - -
18/12:30pm 12.8 W 13 17 1008.3 - 0.4 - - - - - - -
18/12:00pm 12.4 SSW 5 8 1008.0 - 0.4 Recent precip. - - - - - -
18/11:30am 12.4 WSW 12 15 1008.2 - 0.4 - - - - - - -
18/11:00am 12.4 W 18 23 1008.7 - 0.2 - - - - - - -
18/10:30am 13.6 WSW 18 26 1008.9 - 0.0 - - - - - - -
18/10:08am 13.8 W 27 31 1008.0 - 0.0 - - - - - - -
18/10:00am 14.9 WNW 11 14 1007.6 - 0.0 - - - - - - -
18/09:30am 15.7 N 9 10 1006.8 - 0.0 - - - - - - -
18/09:00am 15.3 N 9 11 1006.8 - 0.0 - - - - - - -
18/08:30am 14.9 N 8 9 1007.6 - 0.0 - - - - - - -
18/08:00am 14.1 N 9 11 1007.9 - 0.0 - - - - - - -
18/07:30am 14.0 N 8 10 1008.2 - 0.0 - - - - - - -
18/07:00am 13.7 N 8 9 1008.5 - 0.0 - - - - - - -
18/06:30am 14.1 N 8 10 1008.6 - 0.0 - - - - - - -
18/06:00am 14.6 N 10 12 1009.0 - 0.0 - - - - - - -
18/05:30am 14.5 N 10 12 1009.3 - 0.0 - - - - - - -
18/05:00am 15.0 N 8 11 1009.6 - 0.0 - - - - - - -
18/04:30am 15.0 N 7 10 1010.2 - 0.0 - - - - - - -
18/04:00am 14.8 N 10 12 1010.5 - 0.0 - - - - - - -
18/03:30am 14.6 N 9 12 1010.8 - 0.0 - - - - - - -
18/03:00am 14.9 N 8 10 1011.2 - 0.0 - - - - - - -
18/02:30am 14.7 N 10 12 1011.8 - 0.0 - - - - - - -
18/02:00am 15.2 N 7 12 1012.1 - 0.0 - - - - - - -
18/01:30am 14.9 N 8 13 1012.6 - 0.0 - - - - - - -
18/01:00am 13.8 NW 1 4 1013.0 - 0.0 - - - - - - -
18/12:30am 12.2 SSW 4 5 1013.4 - 0.0 - - - - - - -
18/12:00am 13.6 CALM 0 1 1013.7 - 0.0 - - - - - - -
 
Date/Time
EST
Temp

°C
Wind Pressure Rain
since 9am
mm
Weather Cloud Vis
km
Sea
Height
m
Swell
Dir
 
Speed
knots
Gust
knots
hPa Trend Height
m
Period
s
Dir
17/11:30pm 14.8 WSW 2 3 1014.1 - 0.0 - - - - - - -
17/11:00pm 15.0 SSW 1 2 1014.5 - 0.0 - - - - - - -
17/10:30pm 13.9 SW 3 4 1015.0 - 0.0 - - - - - - -
17/10:00pm 14.8 CALM 0 1 1015.3 - 0.0 - - - - - - -
17/09:30pm 13.4 SSW 1 3 1015.4 - 0.0 - - - - - - -
17/09:00pm 14.7 WNW 4 7 1015.6 - 0.0 - - - - - - -
17/08:30pm 15.4 SSW 4 8 1015.7 - 0.0 - - - - - - -
17/08:00pm 14.8 SW 5 7 1015.8 - 0.0 - - - - - - -
17/07:30pm 16.8 N 7 10 1015.8 - 0.0 - - - - - - -
17/07:00pm 16.9 N 6 8 1015.9 - 0.0 - - - - - - -
17/06:30pm 17.1 NE 4 8 1015.9 - 0.0 - - - - - - -
17/06:00pm 16.2 E 5 7 1016.0 - 0.0 - - - - - - -
17/05:30pm 16.6 E 9 11 1016.0 - 0.0 - - - - - - -
17/05:00pm 17.0 E 7 8 1015.8 - 0.0 - - - - - - -
17/04:30pm 17.4 E 8 9 1016.0 - 0.0 - - - - - - -
17/04:00pm 18.2 E 7 9 1016.3 - 0.0 - - - - - - -
17/03:30pm 18.9 NE 8 9 1016.7 - 0.0 - - - - - - -
17/03:00pm 19.3 NE 7 8 1017.1 - 0.0 - - - - - - -
17/02:30pm 19.1 NE 7 8 1017.3 - 0.0 - - - - - - -
17/02:00pm 19.4 NE 8 10 1017.6 - 0.0 - - - - - - -
17/01:30pm 19.2 NNE 7 9 1018.0 - 0.0 - - - - - - -
17/01:00pm 18.6 NNE 7 9 1018.4 - 0.0 - - - - - - -
17/12:30pm 18.1 ENE 4 5 1019.0 - 0.0 - - - - - - -
17/12:00pm 17.7 NE 4 6 1019.6 - 0.0 - - - - - - -
17/11:30am 16.8 N 5 7 1020.0 - 0.0 - - - - - - -
17/11:00am 15.5 N 5 7 1020.3 - 0.0 - - - - - - -
17/10:30am 14.4 N 7 7 1020.5 - 0.0 - - - - - - -
17/10:00am 13.7 NNE 10 11 1020.4 - 0.0 - - - - - - -
17/09:30am 13.8 NNE 7 10 1020.6 - 0.0 - - - - - - -
17/09:00am 12.8 NNE 9 12 1020.8 - 0.0 - - - - - - -
17/08:30am 12.9 NNE 7 9 1020.9 - 0.0 - - - - - - -
17/08:00am 12.7 N 5 8 1020.8 - 0.0 - - - - - - -
17/07:30am 10.1 S 2 3 1020.7 - 0.0 - - - - - - -
17/07:00am 9.6 S 4 5 1020.3 - 0.0 - - - - - - -
17/06:30am 9.8 SSW 5 6 1020.4 - 0.0 - - - - - - -
17/06:00am 9.5 SSW 5 5 1020.3 - 0.0 - - - - - - -
17/05:30am 9.4 SSW 6 7 1020.2 - 0.0 - - - - - - -
17/05:00am 9.4 SSW 4 6 1020.2 - 0.0 - - - - - - -
17/04:30am 9.6 SSW 4 5 1020.2 - 0.0 - - - - - - -
17/04:00am 10.0 S 5 5 1019.9 - 0.0 - - - - - - -
17/03:30am 10.5 S 5 6 1019.8 - 0.0 - - - - - - -
17/03:00am 10.3 S 6 7 1019.9 - 0.0 - - - - - - -
17/02:30am 10.4 S 7 8 1020.0 - 0.0 - - - - - - -
17/02:00am 10.5 SSW 5 6 1020.1 - 0.0 - - - - - - -
17/01:30am 10.6 SSW 4 5 1020.3 - 0.0 - - - - - - -
17/01:00am 10.9 S 6 7 1020.5 - 0.0 - - - - - - -
17/12:30am 11.3 SSW 6 7 1020.5 - 0.0 - - - - - - -
17/12:00am 11.2 S 1 4 1020.5 - 0.0 - - - - - - -
 
Date/Time
EST
Temp

°C
Wind Pressure Rain
since 9am
mm
Weather Cloud Vis
km
Sea
Height
m
Swell
Dir
 
Speed
knots
Gust
knots
hPa Trend Height
m
Period
s
Dir
16/11:30pm 12.8 WSW 2 4 1020.6 - 0.0 - - - - - - -
16/11:00pm 14.2 N 5 6 1020.6 - 0.0 - - - - - - -
16/10:30pm 14.2 NE 6 7 1020.7 - 0.0 - - - - - - -
16/10:00pm 14.2 ENE 6 7 1020.7 - 0.0 - - - - - - -
16/09:30pm 14.5 NE 6 7 1020.7 - 0.0 - - - - - - -
16/09:00pm 14.7 NE 9 11 1020.5 - 0.0 - - - - - - -
16/08:30pm 14.8 NE 9 12 1020.3 - 0.0 - - - - - - -
16/08:00pm 14.9 NE 9 11 1020.2 - 0.0 - - - - - - -
16/07:30pm 15.1 NE 10 13 1020.1 - 0.0 - - - - - - -
16/07:00pm 15.3 NE 10 12 1020.2 - 0.0 - - - - - - -
16/06:30pm 15.4 ENE 8 10 1020.0 - 0.0 - - - - - - -
16/06:00pm 15.7 NE 11 13 1019.9 - 0.0 - - - - - - -
16/05:30pm 15.8 ENE 10 12 1019.9 - 0.0 - - - - - - -
16/05:00pm 16.4 ENE 9 13 1019.9 - 0.0 - - - - - - -
16/04:30pm 16.9 ENE 10 11 1019.9 - 0.0 - - - - - - -
16/04:00pm 16.6 ENE 9 10 1020.0 - 0.0 - - - - - - -
16/03:30pm 17.2 ENE 13 14 1020.0 - 0.0 - - - - - - -
16/03:00pm 17.2 ENE 11 13 1020.0 - 0.0 - - - - - - -
16/02:30pm 17.5 ENE 12 15 1020.2 - 0.0 - - - - - - -
16/02:00pm 18.0 ENE 7 8 1020.5 - 0.0 - - - - - - -
16/01:30pm 17.7 E 8 10 1020.6 - 0.0 - - - - - - -
16/01:00pm 16.9 NE 8 9 1020.8 - 0.0 - - - - - - -
16/12:30pm 17.1 NE 5 5 1021.4 - 0.0 - - - - - - -
16/12:00pm 15.9 NE 5 6 1021.9 - 0.0 - - - - - - -
16/11:30am 15.7 NNE 7 8 1022.3 - 0.0 - - - - - - -
16/11:00am 14.6 NNE 7 7 1022.5 - 0.0 - - - - - - -
16/10:30am 13.8 NNE 7 9 1022.7 - 0.0 - - - - - - -
16/10:00am 13.0 NNE 9 11 1023.0 - 0.0 - - - - - - -
16/09:30am 12.7 N 10 12 1023.2 - 0.0 - - - - - - -
16/09:00am 11.9 N 12 13 1023.4 - 0.0 - - - - - - -
16/08:30am 11.6 N 11 13 1023.5 - 0.0 - - - - - - -
16/08:00am 11.1 NNE 10 11 1023.6 - 0.0 - - - - - - -
16/07:30am 10.1 SW 2 4 1023.7 - 0.0 - - - - - - -
16/07:00am 10.8 NNE 6 9 1023.4 - 0.0 - - - - - - -
16/06:30am 8.5 SSW 4 5 1023.3 - 0.0 - - - - - - -
16/06:00am 8.7 SW 4 5 1023.4 - 0.0 - - - - - - -
16/05:30am 10.0 CALM 0 0 1023.3 - 0.0 - - - - - - -

Other Formats:

Comma delimited format used in spreadsheet applications
http://www.bom.gov.au/fwo/IDT60701/IDT60701.94988.axf

JavaScript Object Notation format (JSON) in row-major order
http://www.bom.gov.au/fwo/IDT60701/IDT60701.94988.json